createdAt,value
2022-09-04T00:02:59.840Z,3.65
2022-09-04T00:05:45.758Z,3.90
2022-09-04T00:08:42.776Z,4.25
2022-09-04T00:11:39.306Z,4.10
2022-09-04T00:14:49.350Z,4.10
2022-09-04T00:17:44.577Z,4.03
2022-09-04T00:20:34.400Z,3.80
2022-09-04T00:23:34.544Z,4.55
2022-09-04T00:26:38.488Z,4.60
2022-09-04T00:29:58.989Z,4.47
2022-09-04T00:32:49.539Z,4.32
2022-09-04T00:35:59.883Z,4.03
2022-09-04T00:38:51.128Z,4.10
2022-09-04T00:41:41.069Z,4.97
2022-09-04T00:44:41.673Z,4.57
2022-09-04T00:47:52.802Z,4.75
2022-09-04T00:51:11.727Z,4.80
2022-09-04T00:54:16.116Z,4.95
2022-09-04T00:57:33.998Z,4.50
2022-09-04T01:00:21.984Z,4.38
2022-09-04T01:03:07.575Z,4.78
2022-09-04T01:06:26.143Z,4.43
2022-09-04T01:09:32.240Z,5.10
2022-09-04T01:12:42.563Z,4.80
2022-09-04T01:15:38.971Z,4.90
2022-09-04T01:19:06.111Z,4.93
2022-09-04T01:22:16.537Z,4.57
2022-09-04T01:25:25.614Z,4.63
2022-09-04T01:28:19.607Z,4.30
2022-09-04T01:31:25.250Z,4.55
2022-09-04T01:34:41.103Z,4.20
2022-09-04T01:37:52.126Z,4.93
2022-09-04T01:40:40.985Z,5.45
2022-09-04T01:43:27.308Z,5.37
2022-09-04T01:46:31.570Z,5.15
2022-09-04T01:49:23.655Z,5.43
2022-09-04T01:52:36.603Z,5.25
2022-09-04T01:55:42.658Z,5.43
2022-09-04T01:58:35.536Z,5.50
2022-09-04T02:01:41.726Z,5.50
2022-09-04T02:04:36.818Z,5.15
2022-09-04T02:07:40.651Z,4.75
2022-09-04T02:10:44.851Z,5.05
2022-09-04T02:14:04.565Z,4.78
2022-09-04T02:17:20.814Z,4.75
2022-09-04T02:20:18.952Z,4.68
2022-09-04T02:23:40.590Z,4.90
2022-09-04T02:27:16.081Z,4.50
2022-09-04T02:30:10.452Z,4.78
2022-09-04T02:33:31.522Z,5.15
2022-09-04T02:36:43.049Z,5.00
2022-09-04T02:39:47.336Z,5.28
2022-09-04T02:42:58.436Z,5.43
2022-09-04T02:46:05.897Z,5.03
2022-09-04T02:49:15.152Z,5.53
2022-09-04T02:52:15.492Z,5.40
2022-09-04T02:55:08.361Z,5.68
2022-09-04T02:58:23.632Z,5.53
2022-09-04T03:01:47.724Z,6.10
2022-09-04T03:05:26.918Z,6.00
2022-09-04T03:08:20.752Z,6.47
2022-09-04T03:11:35.178Z,5.63
2022-09-04T03:14:47.060Z,5.40
2022-09-04T03:17:48.754Z,5.72
2022-09-04T03:20:42.887Z,6.03
2022-09-04T03:23:48.661Z,6.10
2022-09-04T03:26:41.798Z,5.78
2022-09-04T03:29:40.144Z,5.85
2022-09-04T03:32:44.776Z,5.53
2022-09-04T03:35:37.799Z,6.40
2022-09-04T03:38:57.324Z,5.60
2022-09-04T03:42:05.175Z,6.40
2022-09-04T03:45:02.904Z,6.32
2022-09-04T03:47:51.544Z,5.97
2022-09-04T03:50:49.520Z,5.88
2022-09-04T03:53:44.351Z,6.25
2022-09-04T03:56:38.767Z,6.55
2022-09-04T03:59:42.924Z,6.40
2022-09-04T04:02:54.735Z,6.38
2022-09-04T04:05:59.455Z,6.32
2022-09-04T04:09:12.074Z,6.60
2022-09-04T04:12:16.443Z,7.22
2022-09-04T04:15:20.565Z,6.93
2022-09-04T04:18:30.768Z,6.80
2022-09-04T04:21:59.853Z,6.82
2022-09-04T04:25:06.401Z,6.47
2022-09-04T04:28:07.263Z,6.28
2022-09-04T04:30:59.148Z,6.85
2022-09-04T04:33:47.807Z,7.10
2022-09-04T04:37:06.390Z,7.05
2022-09-04T04:39:55.286Z,6.70
2022-09-04T04:43:09.526Z,6.45
2022-09-04T04:46:14.019Z,6.53
2022-09-04T04:49:00.136Z,7.10
2022-09-04T04:52:16.914Z,6.78
2022-09-04T04:55:21.405Z,7.10
2022-09-04T04:58:07.913Z,6.83
2022-09-04T05:01:01.255Z,6.63
2022-09-04T05:04:08.216Z,6.57
2022-09-04T05:07:28.114Z,7.32
2022-09-04T05:10:48.782Z,6.50
2022-09-04T05:14:01.930Z,6.07
2022-09-04T05:16:52.288Z,6.50
2022-09-04T05:19:53.784Z,6.82
2022-09-04T05:22:48.847Z,6.70
2022-09-04T05:25:37.602Z,6.22
2022-09-04T05:28:44.768Z,6.37
2022-09-04T05:31:42.158Z,6.65
2022-09-04T05:34:39.761Z,6.47
2022-09-04T05:37:50.358Z,6.13
2022-09-04T05:40:53.157Z,6.05
2022-09-04T05:44:09.174Z,6.47
2022-09-04T05:47:16.776Z,6.80
2022-09-04T05:50:05.217Z,6.65
2022-09-04T05:52:56.647Z,6.80
2022-09-04T05:55:51.467Z,7.15
2022-09-04T05:59:06.303Z,6.63
2022-09-04T06:02:31.948Z,6.43
2022-09-04T06:05:44.508Z,6.28
2022-09-04T06:08:42.516Z,6.60
2022-09-04T06:11:47.837Z,6.43
2022-09-04T06:14:57.025Z,6.50
2022-09-04T06:18:07.636Z,7.13
2022-09-04T06:21:11.844Z,6.78
2022-09-04T06:24:15.330Z,6.95
2022-09-04T06:27:03.829Z,6.88
2022-09-04T06:30:06.757Z,6.82
2022-09-04T06:33:13.278Z,6.43
2022-09-04T06:36:29.959Z,7.25
2022-09-04T06:39:21.571Z,7.68
2022-09-04T06:42:22.334Z,8.93
2022-09-04T06:45:37.844Z,11.00
2022-09-04T06:48:41.648Z,11.55
2022-09-04T06:51:59.740Z,11.68
2022-09-04T06:55:00.929Z,11.90
2022-09-04T06:58:05.331Z,12.10
2022-09-04T07:01:13.657Z,12.30
2022-09-04T07:04:36.633Z,10.55
2022-09-04T07:07:54.392Z,9.93
2022-09-04T07:10:45.006Z,10.23
2022-09-04T07:14:16.449Z,10.50
2022-09-04T07:17:23.573Z,12.27
2022-09-04T07:20:17.738Z,12.35
2022-09-04T07:23:10.137Z,12.57
2022-09-04T07:26:19.342Z,12.43
2022-09-04T07:29:37.469Z,13.55
2022-09-04T07:32:36.355Z,13.10
2022-09-04T07:35:33.204Z,11.70
2022-09-04T07:38:50.555Z,11.43
2022-09-04T07:41:51.262Z,12.13
2022-09-04T07:45:03.963Z,12.60
2022-09-04T07:48:08.371Z,12.80
2022-09-04T07:51:10.452Z,12.48
2022-09-04T07:54:22.597Z,11.70
2022-09-04T07:57:32.110Z,12.52
2022-09-04T08:00:21.123Z,11.85
2022-09-04T08:03:17.533Z,12.63
2022-09-04T08:06:14.154Z,12.13
2022-09-04T08:09:25.314Z,11.65
2022-09-04T08:12:49.050Z,10.65
2022-09-04T08:15:56.663Z,11.88
2022-09-04T08:18:56.384Z,10.70
2022-09-04T08:21:48.222Z,11.32
2022-09-04T08:25:02.004Z,11.02
2022-09-04T08:28:17.524Z,11.27
2022-09-04T08:31:24.296Z,11.10
2022-09-04T08:34:28.592Z,10.65
2022-09-04T08:37:33.373Z,10.95
2022-09-04T08:40:31.453Z,10.65
2022-09-04T08:43:38.445Z,11.27
2022-09-04T08:47:05.381Z,11.20
2022-09-04T08:50:14.265Z,11.77
2022-09-04T08:53:37.324Z,11.80
2022-09-04T08:56:37.667Z,12.10
2022-09-04T09:00:00.854Z,12.20
2022-09-04T09:03:04.873Z,11.00
2022-09-04T09:06:07.445Z,11.00
2022-09-04T09:09:18.078Z,11.50
2022-09-04T09:12:48.160Z,10.85
2022-09-04T09:15:56.060Z,9.23
2022-09-04T09:19:00.288Z,9.18
2022-09-04T09:21:57.933Z,6.95
2022-09-04T09:25:11.363Z,7.30
2022-09-04T09:28:08.861Z,7.00
2022-09-04T09:31:27.458Z,8.70
2022-09-04T09:34:32.085Z,8.63
2022-09-04T09:37:23.505Z,9.70
2022-09-04T09:40:30.834Z,7.45
2022-09-04T09:43:51.040Z,6.80
2022-09-04T09:46:48.843Z,7.00
2022-09-04T09:50:16.456Z,7.88
2022-09-04T09:53:20.369Z,8.82
2022-09-04T09:56:21.574Z,8.85
2022-09-04T09:59:25.149Z,8.98
2022-09-04T10:02:38.295Z,7.97
2022-09-04T10:05:46.163Z,7.57
2022-09-04T10:09:00.768Z,10.07
2022-09-04T10:12:23.928Z,10.70
2022-09-04T10:15:48.344Z,10.38
2022-09-04T10:18:57.091Z,9.77
2022-09-04T10:21:51.817Z,9.75
2022-09-04T10:25:02.314Z,9.27
2022-09-04T10:28:09.611Z,9.35
2022-09-04T10:31:23.611Z,8.27
2022-09-04T10:34:38.311Z,9.43
2022-09-04T10:38:11.463Z,8.98
2022-09-04T10:41:25.505Z,9.27
2022-09-04T10:44:55.335Z,9.53
2022-09-04T10:48:14.906Z,9.30
2022-09-04T10:51:20.934Z,9.18
2022-09-04T10:54:30.027Z,8.55
2022-09-04T10:57:43.363Z,7.97
2022-09-04T11:01:02.105Z,6.68
2022-09-04T11:04:27.113Z,8.63
2022-09-04T11:08:00.496Z,6.88
2022-09-04T11:11:07.822Z,6.35
2022-09-04T11:14:06.183Z,5.00
2022-09-04T11:17:01.803Z,6.38
2022-09-04T11:19:54.549Z,6.60
2022-09-04T11:22:40.147Z,5.00
2022-09-04T11:25:39.126Z,6.28
2022-09-04T11:28:47.752Z,5.05
2022-09-04T11:31:48.599Z,5.72
2022-09-04T11:35:18.108Z,5.87
2022-09-04T11:38:29.033Z,5.10
2022-09-04T11:41:52.224Z,4.95
2022-09-04T11:44:52.855Z,6.57
2022-09-04T11:47:54.451Z,5.85
2022-09-04T11:51:05.282Z,6.15
2022-09-04T11:53:53.847Z,5.65
2022-09-04T11:56:45.090Z,5.07
2022-09-04T12:00:12.528Z,5.50
2022-09-04T12:03:12.929Z,5.47
2022-09-04T12:06:49.505Z,6.63
2022-09-04T12:10:12.090Z,5.78
2022-09-04T12:13:22.616Z,5.38
2022-09-04T12:16:20.500Z,3.35
2022-09-04T12:19:27.175Z,3.60
2022-09-04T12:22:57.367Z,6.07
2022-09-04T12:26:05.332Z,4.18
2022-09-04T12:29:19.455Z,3.83
2022-09-04T12:32:30.662Z,4.35
2022-09-04T12:35:44.717Z,3.88
2022-09-04T12:38:39.192Z,4.78
2022-09-04T12:41:33.756Z,3.55
2022-09-04T12:44:38.460Z,3.53
2022-09-04T12:47:56.765Z,3.10
2022-09-04T12:50:57.567Z,4.18
2022-09-04T12:54:25.037Z,3.20
2022-09-04T12:57:39.461Z,2.57
2022-09-04T13:00:40.798Z,3.35
2022-09-04T13:03:59.775Z,2.70
2022-09-04T13:07:15.953Z,3.00
2022-09-04T13:10:14.016Z,3.72
2022-09-04T13:13:19.572Z,2.40
2022-09-04T13:16:20.885Z,2.03
2022-09-04T13:19:12.618Z,3.38
2022-09-04T13:22:07.251Z,2.80
2022-09-04T13:25:08.590Z,2.60
2022-09-04T13:28:19.163Z,2.35
2022-09-04T13:31:20.486Z,2.10
2022-09-04T13:34:16.975Z,2.67
2022-09-04T13:37:21.182Z,1.90
2022-09-04T13:40:26.609Z,1.80
2022-09-04T13:43:24.455Z,2.00
2022-09-04T13:46:17.622Z,2.08
2022-09-04T13:49:11.670Z,2.08
2022-09-04T13:52:07.339Z,1.55
2022-09-04T13:55:08.480Z,1.33
2022-09-04T13:58:01.517Z,1.30
2022-09-04T14:00:54.107Z,1.20
2022-09-04T14:03:46.241Z,0.90
2022-09-04T14:06:34.396Z,0.90
2022-09-04T14:09:20.044Z,1.17
2022-09-04T14:12:23.966Z,0.60
2022-09-04T14:15:41.787Z,1.20
2022-09-04T14:18:36.737Z,1.13
2022-09-04T14:21:52.804Z,1.00
2022-09-04T14:24:56.466Z,0.90
2022-09-04T14:28:03.534Z,1.15
2022-09-04T14:30:59.219Z,1.27
2022-09-04T14:34:13.656Z,1.40
2022-09-04T14:37:17.729Z,1.20
2022-09-04T14:40:30.302Z,0.90
2022-09-04T14:43:37.436Z,0.93
2022-09-04T14:46:55.744Z,1.10
2022-09-04T14:49:47.347Z,1.50
2022-09-04T14:52:41.696Z,1.20
2022-09-04T14:55:30.749Z,1.20
2022-09-04T14:58:29.749Z,1.20
2022-09-04T15:01:23.579Z,1.00
2022-09-04T15:04:21.775Z,0.95
2022-09-04T15:07:29.798Z,1.08
2022-09-04T15:10:28.576Z,1.00
2022-09-04T15:13:47.021Z,1.60
2022-09-04T15:16:49.867Z,1.08
2022-09-04T15:19:53.007Z,1.05
2022-09-04T15:22:57.169Z,0.90
2022-09-04T15:26:00.506Z,0.98
2022-09-04T15:28:54.240Z,0.80
2022-09-04T15:31:41.976Z,1.00
2022-09-04T15:34:30.145Z,0.80
2022-09-04T15:37:27.247Z,0.77
2022-09-04T15:40:21.663Z,0.73
2022-09-04T15:43:16.326Z,0.80
2022-09-04T15:46:15.883Z,0.80
2022-09-04T15:49:23.269Z,1.00
2022-09-04T15:52:21.417Z,0.88
2022-09-04T15:55:27.842Z,0.85
2022-09-04T15:58:13.436Z,0.77
2022-09-04T16:01:16.886Z,0.90
2022-09-04T16:04:42.234Z,0.80
2022-09-04T16:07:46.542Z,1.10
2022-09-04T16:10:46.768Z,0.90
2022-09-04T16:13:41.412Z,0.70
2022-09-04T16:16:32.682Z,0.90
2022-09-04T16:19:36.480Z,0.73
2022-09-04T16:22:47.731Z,0.80
2022-09-04T16:25:40.607Z,0.90
2022-09-04T16:28:43.834Z,0.80
2022-09-04T16:31:34.585Z,0.87
2022-09-04T16:34:32.908Z,0.70
2022-09-04T16:37:22.528Z,0.60
2022-09-04T16:40:30.026Z,0.70
2022-09-04T16:43:32.095Z,0.68
2022-09-04T16:46:31.437Z,0.80
2022-09-04T16:49:30.584Z,0.80
2022-09-04T16:52:21.148Z,0.65
2022-09-04T16:55:37.011Z,0.90
2022-09-04T16:58:54.700Z,0.70
2022-09-04T17:02:36.148Z,0.80
2022-09-04T17:05:34.982Z,1.10
2022-09-04T17:08:47.915Z,1.00
2022-09-04T17:11:55.511Z,1.20
2022-09-04T17:15:08.452Z,0.80
2022-09-04T17:17:54.462Z,1.13
2022-09-04T17:21:55.227Z,0.80
2022-09-04T17:28:56.382Z,0.90
2022-09-04T17:29:09.378Z,0.85
2022-09-04T17:30:31.808Z,0.90
2022-09-04T17:40:40.275Z,1.20
2022-09-04T17:40:43.842Z,0.82
2022-09-04T17:40:48.433Z,1.20
2022-09-04T17:44:03.478Z,1.13
2022-09-04T17:47:03.767Z,1.33
2022-09-04T17:49:51.998Z,1.50
2022-09-04T17:53:01.875Z,1.58
2022-09-04T17:55:50.793Z,1.38
2022-09-04T17:58:49.815Z,1.50
2022-09-04T18:02:10.215Z,1.25
2022-09-04T18:05:12.149Z,1.55
2022-09-04T18:08:29.674Z,1.70
2022-09-04T18:11:20.727Z,1.42
2022-09-04T18:14:31.841Z,1.83
2022-09-04T18:17:25.745Z,1.40
2022-09-04T18:20:37.504Z,1.40
2022-09-04T18:23:52.570Z,2.00
2022-09-04T18:26:49.942Z,1.70
2022-09-04T18:36:48.634Z,1.80
2022-09-04T18:37:16.429Z,1.90
2022-09-04T18:37:21.951Z,1.83
2022-09-04T18:39:44.740Z,2.00
2022-09-04T18:50:23.593Z,1.65
2022-09-04T18:50:38.083Z,2.10
2022-09-04T18:50:39.645Z,2.13
2022-09-04T18:52:55.302Z,1.92
2022-09-04T18:55:49.431Z,2.00
2022-09-04T18:58:44.692Z,2.08
2022-09-04T19:01:45.238Z,2.50
2022-09-04T19:04:37.446Z,2.08
2022-09-04T19:07:35.279Z,2.20
2022-09-04T19:10:29.951Z,2.10
2022-09-04T19:13:31.080Z,2.38
2022-09-04T19:16:35.247Z,2.15
2022-09-04T19:19:51.429Z,2.40
2022-09-04T19:22:49.610Z,2.30
2022-09-04T19:25:39.787Z,2.40
2022-09-04T19:28:39.959Z,2.50
2022-09-04T19:31:44.279Z,2.30
2022-09-04T19:34:40.602Z,2.80
2022-09-04T19:42:10.792Z,2.23
2022-09-04T19:46:05.765Z,2.80
2022-09-04T19:46:13.885Z,2.53
2022-09-04T19:47:31.590Z,2.28
2022-09-04T19:53:17.967Z,2.55
2022-09-04T19:54:08.672Z,2.50
2022-09-04T19:57:33.403Z,2.80
2022-09-04T20:00:42.378Z,2.37
2022-09-04T20:03:39.825Z,2.70
2022-09-04T20:06:33.167Z,2.42
2022-09-04T20:09:23.153Z,2.50
2022-09-04T20:12:15.019Z,2.45
2022-09-04T20:15:18.216Z,2.65
2022-09-04T20:18:22.557Z,2.70
2022-09-04T20:21:26.721Z,3.00
2022-09-04T20:24:26.690Z,3.22
2022-09-04T20:27:16.833Z,3.13
2022-09-04T20:30:24.762Z,3.38
2022-09-04T20:33:12.314Z,3.20
2022-09-04T20:36:02.339Z,3.13
2022-09-04T20:38:57.949Z,3.00
2022-09-04T20:42:04.452Z,2.92
2022-09-04T20:46:40.164Z,3.55
2022-09-04T20:52:54.895Z,3.75
2022-09-04T20:53:06.019Z,3.75
2022-09-04T20:54:44.882Z,4.05
2022-09-04T21:01:31.049Z,3.67
2022-09-04T21:03:18.063Z,3.70
2022-09-04T21:04:28.785Z,3.70
2022-09-04T21:07:27.553Z,3.70
2022-09-04T21:10:21.889Z,3.20
2022-09-04T21:13:34.593Z,2.80
2022-09-04T21:16:48.582Z,3.13
2022-09-04T21:19:55.865Z,3.00
2022-09-04T21:23:23.030Z,3.35
2022-09-04T21:26:11.047Z,3.55
2022-09-04T21:29:11.219Z,4.25
2022-09-04T21:32:19.613Z,4.78
2022-09-04T21:35:08.195Z,4.00
2022-09-04T21:38:12.057Z,3.92
2022-09-04T21:41:06.756Z,4.20
2022-09-04T21:43:58.042Z,3.97
2022-09-04T21:47:08.567Z,4.22
2022-09-04T21:50:32.291Z,4.47
2022-09-04T21:53:23.619Z,4.80
2022-09-04T22:02:20.244Z,5.15
2022-09-04T22:02:36.671Z,4.20
2022-09-04T22:02:54.483Z,4.35
2022-09-04T22:06:07.992Z,4.07
2022-09-04T22:13:31.539Z,4.45
2022-09-04T22:13:39.419Z,4.07
2022-09-04T22:16:03.244Z,4.15
2022-09-04T22:18:51.772Z,4.27
2022-09-04T22:21:43.572Z,4.43
2022-09-04T22:24:39.731Z,4.22
2022-09-04T22:28:09.150Z,4.20
2022-09-04T22:31:02.004Z,5.13
2022-09-04T22:34:14.918Z,7.45
2022-09-04T22:37:10.784Z,8.80
2022-09-04T22:40:26.182Z,8.45
2022-09-04T22:43:24.440Z,9.10
2022-09-04T22:46:30.510Z,9.35
2022-09-04T22:49:25.995Z,9.18
2022-09-04T22:52:36.740Z,9.48
2022-09-04T22:56:17.824Z,9.65
2022-09-04T22:59:27.000Z,9.93
2022-09-04T23:03:04.084Z,9.43
2022-09-04T23:09:09.420Z,10.00
2022-09-04T23:13:48.275Z,9.73
2022-09-04T23:13:59.988Z,9.43
2022-09-04T23:16:37.349Z,9.73
2022-09-04T23:26:34.951Z,9.60
2022-09-04T23:26:50.915Z,9.83
2022-09-04T23:26:59.656Z,11.30
2022-09-04T23:29:51.386Z,10.55
2022-09-04T23:33:06.748Z,11.00
2022-09-04T23:36:10.462Z,11.30
2022-09-04T23:39:16.751Z,10.93
2022-09-04T23:42:24.434Z,11.68
2022-09-04T23:45:36.763Z,11.43
2022-09-04T23:48:52.699Z,11.10
2022-09-04T23:51:44.303Z,12.03
2022-09-04T23:55:11.475Z,12.55
2022-09-04T23:58:30.211Z,12.48
